createdAt,value
2014-07-28T05:01:52.019Z,100746
2014-07-28T05:02:09.597Z,100737
2014-07-28T05:02:27.191Z,100737
2014-07-28T05:02:44.771Z,100734
2014-07-28T05:03:02.365Z,100731
2014-07-28T05:03:19.943Z,100737
2014-07-28T05:03:38.164Z,100740
2014-07-28T05:03:55.757Z,100728
2014-07-28T05:04:13.476Z,100734
2014-07-28T05:04:31.057Z,100734
2014-07-28T05:04:48.635Z,100733
2014-07-28T05:05:05.604Z,100742
2014-07-28T05:05:23.182Z,100733
2014-07-28T05:05:40.778Z,100727
2014-07-28T05:05:58.356Z,100739
2014-07-28T05:06:15.950Z,100736
2014-07-28T05:06:33.530Z,100727
2014-07-28T05:06:51.749Z,100730
2014-07-28T05:07:09.968Z,100724
2014-07-28T05:07:28.186Z,100724
2014-07-28T05:07:46.406Z,100739
2014-07-28T05:08:04.625Z,100739
2014-07-28T05:08:22.203Z,100733
2014-07-28T05:08:39.799Z,100733
2014-07-28T05:08:57.392Z,100730
2014-07-28T05:09:14.346Z,100733
2014-07-28T05:09:31.301Z,100730
2014-07-28T05:09:49.519Z,100736
2014-07-28T05:10:37.209Z,100730
2014-07-28T05:10:54.803Z,100727
2014-07-28T05:11:13.021Z,100727
2014-07-28T05:11:30.617Z,100733
2014-07-28T05:11:48.195Z,100724
2014-07-28T05:12:04.523Z,100727
2014-07-28T05:12:22.836Z,100724
2014-07-28T05:12:39.807Z,100727
2014-07-28T05:12:57.525Z,100727
2014-07-28T05:13:14.494Z,100721
2014-07-28T05:13:31.465Z,100719
2014-07-28T05:13:48.418Z,100722
2014-07-28T05:14:06.012Z,100727
2014-07-28T05:14:24.231Z,100727
2014-07-28T05:14:41.826Z,100722
2014-07-28T05:15:00.045Z,100719
2014-07-28T05:15:18.389Z,100730
2014-07-28T05:15:37.546Z,100724
2014-07-28T05:15:55.280Z,100727
2014-07-28T05:16:13.499Z,100724
2014-07-28T05:16:31.720Z,100727
2014-07-28T05:16:49.939Z,100719
2014-07-28T05:17:08.157Z,100736
2014-07-28T05:17:26.376Z,100727
2014-07-28T05:17:44.597Z,100733
2014-07-28T05:18:01.550Z,100724
2014-07-28T05:18:19.769Z,100724
2014-07-28T05:18:37.991Z,100730
2014-07-28T05:18:56.194Z,100730
2014-07-28T05:19:14.412Z,100730
2014-07-28T05:19:32.006Z,100727
2014-07-28T05:19:49.585Z,100722
2014-07-28T05:20:07.820Z,100722
2014-07-28T05:20:25.398Z,100725
2014-07-28T05:20:42.995Z,100733
2014-07-28T05:21:01.213Z,100725
2014-07-28T05:21:18.932Z,100727
2014-07-28T05:21:35.885Z,100725
2014-07-28T05:21:53.480Z,100733
2014-07-28T05:22:10.433Z,100730
2014-07-28T05:22:28.027Z,100725
2014-07-28T05:22:45.624Z,100725
2014-07-28T05:23:03.842Z,100736
2014-07-28T05:23:22.061Z,100722
2014-07-28T05:23:40.280Z,100725
2014-07-28T05:23:57.859Z,100728
2014-07-28T05:24:16.078Z,100730
2014-07-28T05:24:33.687Z,100736
2014-07-28T05:24:51.284Z,100727
2014-07-28T05:25:08.237Z,100736
2014-07-28T05:25:25.190Z,100730
2014-07-28T05:25:42.784Z,100736
2014-07-28T05:26:00.379Z,100730
2014-07-28T05:26:18.597Z,100739
2014-07-28T05:26:37.175Z,100725
2014-07-28T05:26:54.772Z,100739
2014-07-28T05:27:12.366Z,100742
2014-07-28T05:27:29.960Z,100736
2014-07-28T05:27:47.053Z,100742
2014-07-28T05:28:04.648Z,100739
2014-07-28T05:28:22.851Z,100730
2014-07-28T05:28:41.086Z,100727
2014-07-28T05:28:59.306Z,100736
2014-07-28T05:29:16.885Z,100736
2014-07-28T05:29:35.119Z,100736
2014-07-28T05:29:53.324Z,100736
2014-07-28T05:30:10.433Z,100742
2014-07-28T05:30:27.387Z,100733
2014-07-28T05:30:44.980Z,100739
2014-07-28T05:31:02.560Z,100739
2014-07-28T05:31:19.529Z,100736
2014-07-28T05:31:37.748Z,100739
2014-07-28T05:31:54.703Z,100736
2014-07-28T05:32:12.922Z,100728
2014-07-28T05:32:30.500Z,100730
2014-07-28T05:32:48.109Z,100739
2014-07-28T05:33:06.330Z,100730
2014-07-28T05:33:24.549Z,100736
2014-07-28T05:33:42.143Z,100739
2014-07-28T05:33:59.723Z,100742
2014-07-28T05:34:17.941Z,100739
2014-07-28T05:34:35.535Z,100739
2014-07-28T05:34:53.113Z,100733
2014-07-28T05:35:11.475Z,100733
2014-07-28T05:35:29.693Z,100733
2014-07-28T05:35:47.272Z,100739
2014-07-28T05:36:04.852Z,100736
2014-07-28T05:36:23.211Z,100745
2014-07-28T05:36:40.789Z,100748
2014-07-28T05:36:58.401Z,100736
2014-07-28T05:37:16.619Z,100739
2014-07-28T05:37:34.838Z,100745
2014-07-28T05:37:53.041Z,100745
2014-07-28T05:38:10.637Z,100748
2014-07-28T05:38:28.231Z,100736
2014-07-28T05:38:45.199Z,100739
2014-07-28T05:39:02.779Z,100733
2014-07-28T05:39:21.013Z,100742
2014-07-28T05:39:38.591Z,100736
2014-07-28T05:39:55.700Z,100742
2014-07-28T05:40:13.922Z,100739
2014-07-28T05:40:30.875Z,100745
2014-07-28T05:40:47.828Z,100739
2014-07-28T05:41:05.439Z,100736
2014-07-28T05:41:22.533Z,100733
2014-07-28T05:41:40.751Z,100733
2014-07-28T05:41:57.704Z,100736
2014-07-28T05:42:14.676Z,100748
2014-07-28T05:42:32.270Z,100733
2014-07-28T05:42:50.473Z,100736
2014-07-28T05:43:08.069Z,100733
2014-07-28T05:43:26.288Z,100739
2014-07-28T05:43:43.241Z,100730
2014-07-28T05:44:00.209Z,100748
2014-07-28T05:44:17.790Z,100742
2014-07-28T05:44:36.008Z,100736
2014-07-28T05:44:53.602Z,100745
2014-07-28T05:45:11.197Z,100736
2014-07-28T05:45:28.775Z,100736
2014-07-28T05:45:46.994Z,100742
2014-07-28T05:46:03.337Z,100739
2014-07-28T05:46:21.558Z,100745
2014-07-28T05:46:39.136Z,100751
2014-07-28T05:46:56.730Z,100742
2014-07-28T05:47:13.701Z,100748
2014-07-28T05:47:31.279Z,100745
2014-07-28T05:47:49.638Z,100748
2014-07-28T05:48:07.216Z,100739
2014-07-28T05:48:24.812Z,100757
2014-07-28T05:48:43.031Z,100745
2014-07-28T05:48:59.984Z,100748
2014-07-28T05:49:17.580Z,100733
2014-07-28T05:49:35.799Z,100751
2014-07-28T05:49:52.767Z,100742
2014-07-28T05:50:10.986Z,100748
2014-07-28T05:50:28.566Z,100754
2014-07-28T05:50:46.176Z,100742
2014-07-28T05:51:03.754Z,100748
2014-07-28T05:51:20.100Z,100754
2014-07-28T05:51:37.679Z,100751
2014-07-28T05:51:55.897Z,100742
2014-07-28T05:52:14.116Z,100748
2014-07-28T05:52:31.712Z,100751
2014-07-28T05:52:49.290Z,100748
2014-07-28T05:53:05.759Z,100751
2014-07-28T05:53:23.354Z,100748
2014-07-28T05:53:41.558Z,100762
2014-07-28T05:53:59.917Z,100751
2014-07-28T05:54:16.870Z,100751
2014-07-28T05:54:33.840Z,100757
2014-07-28T05:54:52.043Z,100757
2014-07-28T05:55:09.309Z,100751
2014-07-28T05:55:26.904Z,100760
2014-07-28T05:55:43.873Z,100763
2014-07-28T05:56:02.092Z,100760
2014-07-28T05:56:19.670Z,100763
2014-07-28T05:56:37.391Z,100760
2014-07-28T05:56:55.609Z,100757
2014-07-28T05:57:13.828Z,100754
2014-07-28T05:57:31.425Z,100760
2014-07-28T05:57:48.394Z,100754
2014-07-28T05:58:05.347Z,100757
2014-07-28T05:58:22.331Z,100754
2014-07-28T05:58:40.535Z,100748
2014-07-28T05:58:58.129Z,100760
2014-07-28T05:59:15.723Z,100760
2014-07-28T05:59:33.928Z,100748
2014-07-28T05:59:50.897Z,100748
2014-07-28T06:00:08.475Z,100751
2014-07-28T06:00:26.194Z,100760
2014-07-28T06:00:43.789Z,100760
2014-07-28T06:01:02.008Z,100757
2014-07-28T06:01:18.977Z,100757
2014-07-28T06:01:37.182Z,100757
2014-07-28T06:01:55.401Z,100760
2014-07-28T06:02:13.760Z,100760
2014-07-28T06:02:31.981Z,100751
2014-07-28T06:02:49.559Z,100742
2014-07-28T06:03:05.903Z,100748
2014-07-28T06:03:23.496Z,100757
2014-07-28T06:03:40.452Z,100757
2014-07-28T06:03:57.420Z,100748
2014-07-28T06:04:14.998Z,100754
2014-07-28T06:04:32.592Z,100757
2014-07-28T06:04:48.922Z,100748
2014-07-28T06:05:07.157Z,100757
2014-07-28T06:05:25.360Z,100748
2014-07-28T06:05:42.956Z,100760
2014-07-28T06:06:01.174Z,100757
2014-07-28T06:06:18.752Z,100751
2014-07-28T06:06:36.331Z,100751
2014-07-28T06:06:53.926Z,100757
2014-07-28T06:07:12.145Z,100760
2014-07-28T06:07:29.754Z,100745
2014-07-28T06:07:47.475Z,100757
2014-07-28T06:08:05.678Z,100736
2014-07-28T06:08:23.913Z,100754
2014-07-28T06:08:41.506Z,100748
2014-07-28T06:08:58.476Z,100748
2014-07-28T06:09:16.054Z,100748
2014-07-28T06:09:34.273Z,100742
2014-07-28T06:09:52.494Z,100748
2014-07-28T06:10:10.088Z,100754
2014-07-28T06:10:28.306Z,100760
2014-07-28T06:10:46.528Z,100757
2014-07-28T06:11:04.747Z,100765
2014-07-28T06:11:21.716Z,100751
2014-07-28T06:11:39.309Z,100760
2014-07-28T06:11:56.889Z,100754
2014-07-28T06:12:13.999Z,100763
2014-07-28T06:12:32.218Z,100760
2014-07-28T06:12:49.796Z,100763
2014-07-28T06:13:08.015Z,100768
2014-07-28T06:13:26.234Z,100766
2014-07-28T06:13:43.828Z,100766
2014-07-28T06:14:01.425Z,100763
2014-07-28T06:14:18.393Z,100766
2014-07-28T06:14:35.972Z,100769
2014-07-28T06:14:54.190Z,100766
2014-07-28T06:15:11.786Z,100774
2014-07-28T06:15:30.005Z,100760
2014-07-28T06:15:46.958Z,100771
2014-07-28T06:16:03.288Z,100771
2014-07-28T06:16:21.647Z,100771
2014-07-28T06:16:39.851Z,100771
2014-07-28T06:16:57.444Z,100771
2014-07-28T06:17:15.040Z,100768
2014-07-28T06:17:32.634Z,100768
2014-07-28T06:17:50.853Z,100771
2014-07-28T06:18:09.213Z,100777
2014-07-28T06:18:26.791Z,100774
2014-07-28T06:18:44.525Z,100774
2014-07-28T06:19:02.104Z,100771
2014-07-28T06:19:19.700Z,100768
2014-07-28T06:19:37.294Z,100777
2014-07-28T06:19:54.872Z,100783
2014-07-28T06:20:13.109Z,100777
2014-07-28T06:20:31.327Z,100774
2014-07-28T06:20:49.546Z,100771
2014-07-28T06:21:07.767Z,100760
2014-07-28T06:21:25.986Z,100771
2014-07-28T06:21:44.204Z,100771
2014-07-28T06:22:01.798Z,100760
2014-07-28T06:22:20.018Z,100777
2014-07-28T06:22:37.612Z,100771
2014-07-28T06:22:54.580Z,100768
2014-07-28T06:23:12.160Z,100771
2014-07-28T06:23:29.770Z,100768
2014-07-28T06:23:46.723Z,100783
2014-07-28T06:24:04.942Z,100777
2014-07-28T06:24:22.553Z,100771
2014-07-28T06:24:40.147Z,100780
2014-07-28T06:24:57.116Z,100777
2014-07-28T06:25:15.322Z,100774
2014-07-28T06:25:33.540Z,100780
2014-07-28T06:25:51.134Z,100789
2014-07-28T06:26:08.728Z,100783
2014-07-28T06:26:26.324Z,100780
2014-07-28T06:26:43.917Z,100780
2014-07-28T06:27:01.511Z,100777
2014-07-28T06:27:19.090Z,100786
2014-07-28T06:27:37.309Z,100792
2014-07-28T06:27:54.887Z,100777
2014-07-28T06:28:12.481Z,100789
2014-07-28T06:28:30.062Z,100783
2014-07-28T06:28:48.281Z,100792
2014-07-28T06:29:07.421Z,100797
2014-07-28T06:29:25.032Z,100797
2014-07-28T06:29:43.251Z,100789
2014-07-28T06:30:00.204Z,100795
2014-07-28T06:30:17.782Z,100799
2014-07-28T06:30:35.378Z,100802
2014-07-28T06:30:52.971Z,100799
2014-07-28T06:31:10.565Z,100805
2014-07-28T06:31:28.927Z,100797
2014-07-28T06:31:46.506Z,100814
2014-07-28T06:32:04.099Z,100811
2014-07-28T06:32:22.318Z,100811
2014-07-28T06:32:39.913Z,100805
2014-07-28T06:32:57.632Z,100811
2014-07-28T06:33:13.960Z,100805
2014-07-28T06:33:31.555Z,100820
2014-07-28T06:33:49.774Z,100823
2014-07-28T06:34:07.368Z,100817
2014-07-28T06:34:24.321Z,100820
2014-07-28T06:34:41.917Z,100811
2014-07-28T06:34:59.511Z,100820
2014-07-28T06:35:17.104Z,100811
2014-07-28T06:35:34.684Z,100820
2014-07-28T06:35:52.278Z,100817
2014-07-28T06:36:09.872Z,100823
2014-07-28T06:36:28.075Z,100817
2014-07-28T06:36:45.671Z,100823
2014-07-28T06:37:02.640Z,100820
2014-07-28T06:37:20.858Z,100825
2014-07-28T06:37:38.438Z,100820
2014-07-28T06:37:56.048Z,100808
2014-07-28T06:38:14.267Z,100825
2014-07-28T06:38:32.503Z,100817
2014-07-28T06:38:50.081Z,100823
2014-07-28T06:39:08.300Z,100820
2014-07-28T06:39:25.894Z,100825
2014-07-28T06:39:43.613Z,100814
2014-07-28T06:40:01.832Z,100817
2014-07-28T06:40:18.160Z,100825
2014-07-28T06:40:34.490Z,100823
2014-07-28T06:40:52.709Z,100820
2014-07-28T06:41:10.303Z,100825
2014-07-28T06:41:28.506Z,100823
2014-07-28T06:41:46.102Z,100814
2014-07-28T06:42:04.320Z,100834
2014-07-28T06:42:52.119Z,100825
2014-07-28T06:43:10.338Z,100825
2014-07-28T06:43:28.557Z,100825
2014-07-28T06:43:45.528Z,100828
2014-07-28T06:44:03.121Z,100823
2014-07-28T06:44:20.715Z,100825
2014-07-28T06:44:38.936Z,100825
2014-07-28T06:44:55.889Z,100825
2014-07-28T06:45:12.233Z,100831
2014-07-28T06:45:30.453Z,100822
2014-07-28T06:45:48.672Z,100817
2014-07-28T06:46:06.891Z,100822
2014-07-28T06:46:23.844Z,100817
2014-07-28T06:46:42.205Z,100825
2014-07-28T06:46:59.784Z,100820
2014-07-28T06:47:16.752Z,100822
2014-07-28T06:47:34.348Z,100828
2014-07-28T06:47:52.567Z,100825
2014-07-28T06:48:10.786Z,100825
2014-07-28T06:48:27.879Z,100843
2014-07-28T06:48:45.600Z,100831
2014-07-28T06:49:03.834Z,100831
2014-07-28T06:49:20.788Z,100837
2014-07-28T06:49:39.008Z,100834
2014-07-28T06:49:56.602Z,100834
2014-07-28T06:50:13.555Z,100831
2014-07-28T06:50:31.276Z,100831
2014-07-28T06:50:48.245Z,100831
2014-07-28T06:51:05.963Z,100834
2014-07-28T06:51:23.557Z,100837
2014-07-28T06:51:40.512Z,100843
2014-07-28T06:51:58.106Z,100837
2014-07-28T06:52:15.700Z,100831
2014-07-28T06:52:33.295Z,100834
2014-07-28T06:52:50.873Z,100843
2014-07-28T06:53:09.091Z,100834
2014-07-28T06:53:26.670Z,100837
2014-07-28T06:53:44.265Z,100845
2014-07-28T06:54:02.484Z,100843
2014-07-28T06:54:20.062Z,100843
2014-07-28T06:54:37.017Z,100837
